createdAt,value
2022-11-07T00:00:23.534Z,1.48
2022-11-07T00:03:26.001Z,1.13
2022-11-07T00:06:29.837Z,1.63
2022-11-07T00:09:32.368Z,1.25
2022-11-07T00:12:36.431Z,1.50
2022-11-07T00:15:38.849Z,1.27
2022-11-07T00:18:41.297Z,1.70
2022-11-07T00:21:45.635Z,1.55
2022-11-07T00:24:48.105Z,1.50
2022-11-07T00:27:51.240Z,1.30
2022-11-07T00:30:53.638Z,1.58
2022-11-07T00:33:56.208Z,1.40
2022-11-07T00:36:59.914Z,1.50
2022-11-07T00:40:02.340Z,1.70
2022-11-07T00:43:04.975Z,1.50
2022-11-07T00:46:08.226Z,1.20
2022-11-07T00:49:10.666Z,1.73
2022-11-07T00:52:16.774Z,1.10
2022-11-07T00:55:19.208Z,1.25
2022-11-07T00:58:21.649Z,1.65
2022-11-07T01:01:25.005Z,1.52
2022-11-07T01:04:44.931Z,1.23
2022-11-07T01:07:48.921Z,1.55
2022-11-07T01:10:54.844Z,1.33
2022-11-07T01:13:57.880Z,1.50
2022-11-07T01:17:00.272Z,1.35
2022-11-07T01:20:03.099Z,1.33
2022-11-07T01:23:07.052Z,1.35
2022-11-07T01:26:10.438Z,1.40
2022-11-07T01:29:13.478Z,1.45
2022-11-07T01:32:15.973Z,1.27
2022-11-07T01:35:18.398Z,1.52
2022-11-07T01:38:22.131Z,1.33
2022-11-07T01:41:33.632Z,1.42
2022-11-07T01:45:00.041Z,1.40
2022-11-07T01:48:03.229Z,1.52
2022-11-07T01:51:06.015Z,1.58
2022-11-07T01:54:37.081Z,1.73
2022-11-07T01:57:43.100Z,1.45
2022-11-07T02:00:45.504Z,1.60
2022-11-07T02:03:48.083Z,1.52
2022-11-07T02:06:52.251Z,1.35
2022-11-07T02:09:55.335Z,0.93
2022-11-07T02:12:59.710Z,1.13
2022-11-07T02:16:03.013Z,1.25
2022-11-07T02:19:08.086Z,1.45
2022-11-07T02:22:14.638Z,1.70
2022-11-07T02:25:19.464Z,1.30
2022-11-07T02:28:22.364Z,1.13
2022-11-07T02:31:24.879Z,1.17
2022-11-07T02:34:27.266Z,1.23
2022-11-07T02:37:31.976Z,1.30
2022-11-07T02:40:36.171Z,1.00
2022-11-07T02:43:40.185Z,1.10
2022-11-07T02:46:42.816Z,1.20
2022-11-07T02:49:45.271Z,1.13
2022-11-07T02:52:47.683Z,0.98
2022-11-07T02:55:51.629Z,1.33
2022-11-07T02:58:54.061Z,1.30
2022-11-07T03:01:56.630Z,0.95
2022-11-07T03:04:59.612Z,0.93
2022-11-07T03:08:02.200Z,1.15
2022-11-07T03:11:06.493Z,1.10
2022-11-07T03:14:08.997Z,0.98
2022-11-07T03:17:11.424Z,1.33
2022-11-07T03:20:14.261Z,1.42
2022-11-07T03:23:17.228Z,1.17
2022-11-07T03:26:21.601Z,1.05
2022-11-07T03:29:24.030Z,1.10
2022-11-07T03:32:26.463Z,1.35
2022-11-07T03:35:28.905Z,1.15
2022-11-07T03:38:31.316Z,1.30
2022-11-07T03:41:35.158Z,1.08
2022-11-07T03:44:37.563Z,1.20
2022-11-07T03:47:40.927Z,1.48
2022-11-07T03:50:43.361Z,1.05
2022-11-07T03:53:45.826Z,0.77
2022-11-07T03:56:49.652Z,1.13
2022-11-07T03:59:52.195Z,1.40
2022-11-07T04:02:54.811Z,1.27
2022-11-07T04:05:57.520Z,1.00
2022-11-07T04:09:00.012Z,1.00
2022-11-07T04:12:21.529Z,0.93
2022-11-07T04:15:41.418Z,1.20
2022-11-07T04:18:43.848Z,1.00
2022-11-07T04:21:46.987Z,0.95
2022-11-07T04:24:50.035Z,1.13
2022-11-07T04:27:52.911Z,1.08
2022-11-07T04:30:56.186Z,1.05
2022-11-07T04:33:58.649Z,1.00
2022-11-07T04:37:01.083Z,0.90
2022-11-07T04:40:03.751Z,1.20
2022-11-07T04:43:12.160Z,1.00
2022-11-07T04:46:14.834Z,0.95
2022-11-07T04:49:17.280Z,1.10
2022-11-07T04:52:19.681Z,1.30
2022-11-07T04:55:23.321Z,0.95
2022-11-07T04:58:27.233Z,0.82
2022-11-07T05:01:29.878Z,1.17
2022-11-07T05:04:42.046Z,1.20
2022-11-07T05:07:49.693Z,1.20
2022-11-07T05:10:52.131Z,1.38
2022-11-07T05:13:55.862Z,1.00
2022-11-07T05:17:04.557Z,1.35
2022-11-07T05:20:08.280Z,1.20
2022-11-07T05:23:15.504Z,1.10
2022-11-07T05:26:18.754Z,0.95
2022-11-07T05:29:22.716Z,1.00
2022-11-07T05:32:25.303Z,1.10
2022-11-07T05:35:27.760Z,1.10
2022-11-07T05:38:30.164Z,0.95
2022-11-07T05:41:32.598Z,1.05
2022-11-07T05:44:36.606Z,1.20
2022-11-07T05:47:39.032Z,1.13
2022-11-07T05:50:41.608Z,1.05
2022-11-07T05:53:44.172Z,1.05
2022-11-07T05:56:46.599Z,1.13
2022-11-07T05:59:50.483Z,1.10
2022-11-07T06:02:55.768Z,0.90
2022-11-07T06:05:58.289Z,0.90
2022-11-07T06:09:00.718Z,1.10
2022-11-07T06:12:04.972Z,1.20
2022-11-07T06:15:09.499Z,0.80
2022-11-07T06:18:13.665Z,1.38
2022-11-07T06:21:16.836Z,0.95
2022-11-07T06:24:20.050Z,1.30
2022-11-07T06:27:22.714Z,1.15
2022-11-07T06:30:26.722Z,1.25
2022-11-07T06:33:30.042Z,1.10
2022-11-07T06:36:32.694Z,1.13
2022-11-07T06:39:35.437Z,1.25
2022-11-07T06:42:38.406Z,1.00
2022-11-07T06:45:42.777Z,1.30
2022-11-07T06:48:45.346Z,1.00
2022-11-07T06:51:48.219Z,1.15
2022-11-07T06:54:50.825Z,1.38
2022-11-07T06:57:53.490Z,1.05
2022-11-07T07:01:00.897Z,0.70
2022-11-07T07:04:05.372Z,1.02
2022-11-07T07:07:08.306Z,1.17
2022-11-07T07:10:11.358Z,0.82
2022-11-07T07:13:15.074Z,0.90
2022-11-07T07:16:19.182Z,0.90
2022-11-07T07:19:24.606Z,1.08
2022-11-07T07:22:27.739Z,1.20
2022-11-07T07:25:31.779Z,1.13
2022-11-07T07:28:37.081Z,1.40
2022-11-07T07:31:40.946Z,1.20
2022-11-07T07:34:43.473Z,0.88
2022-11-07T07:37:49.785Z,1.05
2022-11-07T07:40:52.724Z,0.90
2022-11-07T07:43:55.304Z,1.20
2022-11-07T07:46:59.264Z,1.02
2022-11-07T07:50:01.962Z,1.00
2022-11-07T07:53:08.859Z,0.90
2022-11-07T07:56:18.011Z,1.00
2022-11-07T07:59:22.430Z,0.93
2022-11-07T08:02:26.890Z,1.00
2022-11-07T08:05:29.948Z,1.05
2022-11-07T08:08:37.980Z,1.10
2022-11-07T08:11:41.208Z,1.10
2022-11-07T08:14:43.790Z,1.00
2022-11-07T08:17:47.964Z,1.00
2022-11-07T08:20:51.474Z,1.40
2022-11-07T08:24:12.843Z,1.05
2022-11-07T08:27:23.070Z,1.00
2022-11-07T08:30:28.425Z,1.33
2022-11-07T08:33:33.361Z,0.95
2022-11-07T08:36:36.171Z,1.00
2022-11-07T08:39:46.716Z,1.05
2022-11-07T08:42:52.681Z,1.50
2022-11-07T08:45:56.433Z,0.90
2022-11-07T08:49:00.784Z,0.90
2022-11-07T08:52:03.989Z,1.17
2022-11-07T08:55:07.799Z,1.05
2022-11-07T08:58:10.757Z,1.27
2022-11-07T09:01:15.974Z,1.13
2022-11-07T09:04:20.332Z,1.85
2022-11-07T09:07:23.070Z,1.17
2022-11-07T09:10:26.382Z,1.30
2022-11-07T09:13:30.081Z,1.40
2022-11-07T09:16:32.972Z,1.50
2022-11-07T09:19:37.089Z,1.38
2022-11-07T09:22:42.535Z,1.30
2022-11-07T09:25:47.008Z,1.05
2022-11-07T09:28:57.264Z,1.30
2022-11-07T09:32:23.462Z,1.08
2022-11-07T09:35:31.643Z,1.02
2022-11-07T09:38:34.520Z,1.20
2022-11-07T09:41:47.383Z,1.17
2022-11-07T09:44:59.121Z,1.05
2022-11-07T09:48:04.680Z,1.20
2022-11-07T09:51:12.222Z,0.90
2022-11-07T09:54:16.893Z,1.05
2022-11-07T09:57:20.804Z,0.90
2022-11-07T10:00:27.012Z,0.93
2022-11-07T10:03:32.989Z,1.08
2022-11-07T10:06:45.973Z,1.20
2022-11-07T10:10:04.006Z,1.38
2022-11-07T10:13:25.393Z,1.25
2022-11-07T10:16:38.053Z,0.77
2022-11-07T10:19:56.471Z,1.30
2022-11-07T10:23:05.458Z,1.30
2022-11-07T10:26:09.546Z,1.30
2022-11-07T10:29:15.671Z,1.15
2022-11-07T10:32:21.640Z,1.25
2022-11-07T10:35:28.409Z,1.13
2022-11-07T10:38:34.768Z,1.15
2022-11-07T10:41:38.474Z,1.13
2022-11-07T10:44:44.025Z,1.65
2022-11-07T10:47:58.286Z,1.42
2022-11-07T10:51:01.943Z,1.17
2022-11-07T10:54:06.225Z,1.50
2022-11-07T10:57:14.083Z,1.33
2022-11-07T11:00:26.218Z,1.17
2022-11-07T11:03:43.272Z,1.20
2022-11-07T11:07:02.189Z,1.17
2022-11-07T11:10:18.703Z,1.38
2022-11-07T11:13:50.547Z,1.10
2022-11-07T11:16:55.825Z,1.35
2022-11-07T11:20:02.382Z,1.30
2022-11-07T11:23:07.521Z,1.38
2022-11-07T11:26:17.302Z,1.50
2022-11-07T11:29:27.008Z,0.93
2022-11-07T11:32:32.596Z,1.00
2022-11-07T11:35:41.569Z,1.40
2022-11-07T11:38:50.498Z,1.08
2022-11-07T11:41:57.518Z,1.27
2022-11-07T11:45:04.539Z,1.27
2022-11-07T11:48:11.398Z,1.38
2022-11-07T11:51:15.976Z,1.25
2022-11-07T11:54:18.790Z,1.33
2022-11-07T11:57:25.393Z,1.27
2022-11-07T12:00:28.989Z,1.40
2022-11-07T12:03:47.245Z,1.48
2022-11-07T12:06:53.251Z,1.30
2022-11-07T12:09:58.002Z,1.30
2022-11-07T12:13:09.667Z,1.48
2022-11-07T12:16:18.132Z,1.38
2022-11-07T12:19:28.499Z,1.23
2022-11-07T12:22:37.014Z,1.98
2022-11-07T12:25:44.186Z,1.42
2022-11-07T12:28:55.000Z,1.20
2022-11-07T12:32:07.078Z,1.08
2022-11-07T12:35:20.034Z,1.55
2022-11-07T12:38:44.420Z,1.33
2022-11-07T12:41:55.211Z,1.58
2022-11-07T12:45:03.864Z,1.60
2022-11-07T12:48:24.404Z,1.23
2022-11-07T12:51:36.064Z,2.03
2022-11-07T12:54:43.520Z,1.30
2022-11-07T12:57:54.776Z,1.27
2022-11-07T13:01:11.912Z,1.50
2022-11-07T13:04:20.040Z,1.20
2022-11-07T13:07:25.774Z,1.40
2022-11-07T13:10:36.335Z,1.23
2022-11-07T13:13:47.706Z,1.25
2022-11-07T13:16:53.535Z,1.33
2022-11-07T13:20:00.580Z,1.40
2022-11-07T13:23:15.077Z,1.27
2022-11-07T13:26:46.409Z,1.05
2022-11-07T13:29:51.629Z,1.23
2022-11-07T13:32:56.690Z,1.05
2022-11-07T13:36:01.105Z,1.15
2022-11-07T13:39:06.808Z,1.20
2022-11-07T13:42:14.843Z,1.08
2022-11-07T13:45:26.465Z,1.15
2022-11-07T13:48:33.229Z,2.10
2022-11-07T13:51:37.095Z,1.23
2022-11-07T13:54:42.493Z,1.20
2022-11-07T13:57:48.724Z,1.20
2022-11-07T14:00:52.508Z,1.48
2022-11-07T14:03:59.403Z,1.15
2022-11-07T14:07:04.100Z,1.25
2022-11-07T14:10:09.838Z,1.05
2022-11-07T14:13:35.792Z,0.98
2022-11-07T14:16:46.118Z,1.10
2022-11-07T14:20:07.194Z,1.40
2022-11-07T14:23:34.230Z,1.27
2022-11-07T14:26:43.702Z,0.85
2022-11-07T14:29:52.882Z,1.45
2022-11-07T14:32:57.509Z,0.95
2022-11-07T14:36:06.415Z,1.10
2022-11-07T14:39:15.287Z,1.35
2022-11-07T14:42:21.520Z,1.30
2022-11-07T14:45:48.540Z,1.02
2022-11-07T14:48:50.398Z,1.13
2022-11-07T14:51:55.117Z,1.40
2022-11-07T14:54:59.806Z,0.95
2022-11-07T14:58:05.737Z,1.30
2022-11-07T15:01:12.660Z,1.08
2022-11-07T15:04:27.079Z,1.00
2022-11-07T15:07:32.699Z,1.17
2022-11-07T15:10:39.700Z,1.27
2022-11-07T15:13:44.301Z,1.15
2022-11-07T15:16:49.373Z,1.17
2022-11-07T15:20:01.052Z,1.40
2022-11-07T15:23:07.650Z,1.67
2022-11-07T15:26:12.591Z,1.75
2022-11-07T15:29:20.779Z,1.33
2022-11-07T15:32:26.231Z,1.20
2022-11-07T15:35:43.517Z,1.50
2022-11-07T15:38:49.691Z,1.48
2022-11-07T15:41:52.710Z,2.78
2022-11-07T15:44:55.414Z,2.42
2022-11-07T15:47:58.095Z,2.20
2022-11-07T15:51:01.120Z,1.73
2022-11-07T15:54:05.589Z,1.83
2022-11-07T15:57:09.059Z,1.83
2022-11-07T16:00:15.381Z,2.05
2022-11-07T16:03:19.392Z,1.45
2022-11-07T16:06:27.060Z,1.55
2022-11-07T16:09:34.671Z,1.60
2022-11-07T16:12:37.474Z,1.58
2022-11-07T16:15:42.371Z,1.35
2022-11-07T16:18:48.340Z,1.85
2022-11-07T16:21:51.099Z,1.70
2022-11-07T16:24:55.316Z,1.80
2022-11-07T16:28:00.270Z,1.48
2022-11-07T16:31:03.961Z,1.42
2022-11-07T16:34:06.998Z,1.38
2022-11-07T16:37:10.899Z,1.50
2022-11-07T16:40:18.624Z,1.40
2022-11-07T16:43:21.642Z,1.70
2022-11-07T16:46:26.051Z,1.90
2022-11-07T16:49:31.398Z,2.15
2022-11-07T16:52:34.055Z,2.10
2022-11-07T16:55:38.218Z,1.55
2022-11-07T16:58:41.436Z,1.77
2022-11-07T17:01:44.299Z,1.58
2022-11-07T17:04:47.043Z,1.40
2022-11-07T17:07:50.066Z,1.42
2022-11-07T17:10:54.148Z,1.20
2022-11-07T17:13:57.773Z,1.40
2022-11-07T17:17:03.676Z,1.60
2022-11-07T17:20:07.726Z,1.65
2022-11-07T17:23:10.730Z,1.70
2022-11-07T17:26:17.231Z,1.73
2022-11-07T17:29:19.890Z,1.67
2022-11-07T17:32:22.547Z,1.75
2022-11-07T17:35:32.044Z,2.03
2022-11-07T17:38:35.488Z,1.48
2022-11-07T17:41:40.373Z,2.03
2022-11-07T17:44:48.873Z,1.77
2022-11-07T17:47:53.078Z,1.48
2022-11-07T17:50:59.018Z,1.55
2022-11-07T17:54:29.333Z,1.50
2022-11-07T17:58:10.904Z,2.20
2022-11-07T18:05:49.059Z,2.40
2022-11-07T18:08:58.806Z,2.88
2022-11-07T18:12:03.904Z,2.63
2022-11-07T18:15:11.951Z,3.15
2022-11-07T18:18:17.978Z,2.08
2022-11-07T18:21:23.890Z,1.65
2022-11-07T18:24:26.634Z,1.17
2022-11-07T18:27:35.081Z,1.55
2022-11-07T18:30:39.271Z,1.40
2022-11-07T18:34:35.188Z,1.70
2022-11-07T18:41:28.634Z,1.73
2022-11-07T18:44:46.005Z,1.70
2022-11-07T18:48:11.752Z,2.15
2022-11-07T18:52:19.486Z,2.20
2022-11-07T18:55:05.737Z,2.28
2022-11-07T18:58:10.891Z,3.53
2022-11-07T19:01:14.673Z,2.20
2022-11-07T19:04:21.294Z,1.80
2022-11-07T19:07:24.066Z,1.63
2022-11-07T19:10:26.708Z,1.77
2022-11-07T19:13:36.269Z,2.08
2022-11-07T19:16:39.661Z,1.60
2022-11-07T19:19:43.656Z,2.05
2022-11-07T19:22:46.333Z,2.42
2022-11-07T19:25:49.472Z,2.42
2022-11-07T19:28:53.781Z,2.17
2022-11-07T19:31:57.222Z,2.15
2022-11-07T19:35:04.265Z,1.98
2022-11-07T19:38:09.027Z,1.77
2022-11-07T19:41:12.590Z,1.65
2022-11-07T19:44:17.937Z,2.17
2022-11-07T19:47:20.786Z,1.80
2022-11-07T19:50:24.850Z,2.65
2022-11-07T19:53:27.469Z,1.92
2022-11-07T19:56:31.487Z,2.00
2022-11-07T19:59:34.068Z,2.40
2022-11-07T20:02:44.212Z,2.30
2022-11-07T20:05:48.910Z,2.33
2022-11-07T20:08:52.022Z,1.83
2022-11-07T20:11:54.711Z,2.10
2022-11-07T20:14:57.439Z,1.98
2022-11-07T20:18:00.003Z,2.30
2022-11-07T20:21:05.019Z,1.65
2022-11-07T20:24:08.999Z,1.65
2022-11-07T20:27:11.625Z,1.92
2022-11-07T20:30:15.017Z,1.80
2022-11-07T20:33:19.245Z,1.55
2022-11-07T20:36:27.230Z,1.70
2022-11-07T20:39:30.082Z,1.33
2022-11-07T20:42:36.440Z,1.70
2022-11-07T20:45:39.671Z,2.17
2022-11-07T20:48:42.891Z,1.63
2022-11-07T20:51:58.554Z,1.90
2022-11-07T20:55:01.609Z,1.20
2022-11-07T20:58:04.425Z,1.50
2022-11-07T21:01:07.896Z,1.45
2022-11-07T21:04:13.961Z,1.27
2022-11-07T21:07:19.512Z,1.52
2022-11-07T21:10:22.589Z,1.65
2022-11-07T21:13:25.157Z,1.27
2022-11-07T21:16:29.414Z,1.35
2022-11-07T21:19:32.139Z,1.38
2022-11-07T21:22:36.240Z,1.30
2022-11-07T21:25:42.763Z,1.40
2022-11-07T21:28:45.754Z,1.35
2022-11-07T21:32:06.890Z,1.60
2022-11-07T21:35:10.373Z,1.65
2022-11-07T21:38:14.639Z,1.10
2022-11-07T21:41:17.508Z,1.30
2022-11-07T21:44:33.126Z,1.70
2022-11-07T21:47:40.787Z,1.75
2022-11-07T21:50:47.315Z,0.85
2022-11-07T21:53:51.646Z,1.20
2022-11-07T21:56:57.018Z,1.25
2022-11-07T21:59:59.828Z,1.30
2022-11-07T22:03:05.209Z,1.63
2022-11-07T22:06:10.246Z,1.17
2022-11-07T22:09:15.233Z,1.13
2022-11-07T22:12:17.868Z,1.10
2022-11-07T22:15:20.527Z,1.10
2022-11-07T22:18:23.143Z,1.23
2022-11-07T22:21:25.758Z,0.95
2022-11-07T22:24:29.818Z,1.10
2022-11-07T22:27:32.437Z,1.00
2022-11-07T22:30:35.038Z,1.08
2022-11-07T22:33:50.883Z,1.08
2022-11-07T22:36:54.215Z,1.10
2022-11-07T22:39:58.254Z,1.00
2022-11-07T22:43:00.891Z,1.08
2022-11-07T22:46:03.714Z,0.90
2022-11-07T22:49:06.404Z,1.17
2022-11-07T22:52:09.192Z,1.00
2022-11-07T22:55:13.714Z,1.20
2022-11-07T22:58:16.759Z,0.98
2022-11-07T23:01:23.835Z,1.42
2022-11-07T23:04:32.524Z,0.93
2022-11-07T23:07:38.092Z,0.90
2022-11-07T23:11:45.862Z,1.15
2022-11-07T23:14:49.316Z,1.27
2022-11-07T23:18:04.563Z,1.20
2022-11-07T23:21:14.062Z,1.10
2022-11-07T23:24:16.815Z,1.10
2022-11-07T23:27:24.834Z,0.93
2022-11-07T23:30:27.836Z,1.08
2022-11-07T23:33:30.461Z,0.80
2022-11-07T23:36:33.254Z,1.00
2022-11-07T23:39:36.052Z,0.98
2022-11-07T23:42:40.058Z,1.13
2022-11-07T23:46:11.865Z,1.10
2022-11-07T23:49:31.832Z,1.10
2022-11-07T23:52:34.494Z,0.90
2022-11-07T23:55:41.092Z,1.00
2022-11-07T23:59:03.273Z,0.60
